createdAt,value
2023-03-20T00:02:42.150Z,101467.16
2023-03-20T00:05:44.995Z,101453.81
2023-03-20T00:08:49.565Z,101458.25
2023-03-20T00:11:55.553Z,101454.69
2023-03-20T00:15:13.609Z,101460.03
2023-03-20T00:18:19.891Z,101452.91
2023-03-20T00:21:23.157Z,101452.94
2023-03-20T00:24:26.726Z,101449.41
2023-03-20T00:27:29.662Z,101453.91
2023-03-20T00:30:34.001Z,101457.47
2023-03-20T00:33:38.241Z,101452.22
2023-03-20T00:36:41.297Z,101450.47
2023-03-20T00:39:44.264Z,101445.13
2023-03-20T00:42:50.670Z,101451.41
2023-03-20T00:45:54.997Z,101447.00
2023-03-20T00:48:57.975Z,101449.72
2023-03-20T00:52:02.195Z,101443.53
2023-03-20T00:55:05.606Z,101449.72
2023-03-20T00:58:11.749Z,101447.94
2023-03-20T01:01:17.972Z,101440.81
2023-03-20T01:04:21.844Z,101440.81
2023-03-20T01:07:25.007Z,101438.09
2023-03-20T01:10:31.957Z,101439.00
2023-03-20T01:13:34.965Z,101447.00
2023-03-20T01:16:39.244Z,101447.00
2023-03-20T01:19:42.620Z,101441.66
2023-03-20T01:22:45.589Z,101447.97
2023-03-20T01:25:48.773Z,101456.91
2023-03-20T01:28:52.352Z,101467.66
2023-03-20T01:31:57.335Z,101464.09
2023-03-20T01:35:02.743Z,101466.84
2023-03-20T01:38:13.953Z,101467.75
2023-03-20T01:41:18.587Z,101466.84
2023-03-20T01:44:29.779Z,101465.91
2023-03-20T01:47:36.010Z,101466.78
2023-03-20T01:50:39.722Z,101459.75
2023-03-20T01:53:52.379Z,101463.38
2023-03-20T01:57:00.341Z,101459.84
2023-03-20T02:00:06.658Z,101458.97
2023-03-20T02:03:21.502Z,101459.91
2023-03-20T02:06:45.018Z,101456.38
2023-03-20T02:10:10.153Z,101455.41
2023-03-20T02:13:33.005Z,101460.81
2023-03-20T02:16:36.207Z,101457.34
2023-03-20T02:20:05.328Z,101460.88
2023-03-20T02:23:46.136Z,101467.06
2023-03-20T02:27:03.717Z,101458.16
2023-03-20T02:30:40.335Z,101461.72
2023-03-20T02:34:23.556Z,101454.69
2023-03-20T02:37:54.672Z,101460.88
2023-03-20T02:41:05.085Z,101458.25
2023-03-20T02:44:13.882Z,101457.41
2023-03-20T02:47:25.189Z,101463.59
2023-03-20T02:50:36.060Z,101469.84
2023-03-20T02:53:49.969Z,101461.88
2023-03-20T02:57:01.993Z,101466.31
2023-03-20T03:00:13.464Z,101466.31
2023-03-20T03:03:20.537Z,101467.19
2023-03-20T03:06:27.747Z,101460.13
2023-03-20T03:09:36.633Z,101464.53
2023-03-20T03:12:43.790Z,101462.78
2023-03-20T03:15:50.805Z,101459.19
2023-03-20T03:19:06.570Z,101468.97
2023-03-20T03:22:10.135Z,101454.84
2023-03-20T03:25:14.829Z,101461.94
2023-03-20T03:28:27.474Z,101473.44
2023-03-20T03:31:32.731Z,101471.72
2023-03-20T03:34:38.045Z,101467.31
2023-03-20T03:37:49.174Z,101477.03
2023-03-20T03:41:00.496Z,101468.19
2023-03-20T03:44:13.065Z,101469.06
2023-03-20T03:47:21.140Z,101476.09
2023-03-20T03:50:29.468Z,101473.41
2023-03-20T03:53:40.214Z,101468.91
2023-03-20T03:56:47.427Z,101473.34
2023-03-20T03:59:53.764Z,101467.94
2023-03-20T04:02:59.210Z,101466.16
2023-03-20T04:06:05.886Z,101464.34
2023-03-20T04:09:08.829Z,101468.75
2023-03-20T04:12:32.896Z,101474.94
2023-03-20T04:15:36.406Z,101472.28
2023-03-20T04:18:41.025Z,101477.53
2023-03-20T04:21:45.625Z,101481.06
2023-03-20T04:24:48.500Z,101481.97
2023-03-20T04:27:53.017Z,101483.63
2023-03-20T04:31:25.274Z,101479.22
2023-03-20T04:34:46.862Z,101483.63
2023-03-20T04:38:03.897Z,101487.16
2023-03-20T04:41:09.498Z,101487.16
2023-03-20T04:44:13.936Z,101497.78
2023-03-20T04:47:19.574Z,101496.03
2023-03-20T04:50:22.491Z,101496.91
2023-03-20T04:53:27.646Z,101491.56
2023-03-20T04:56:31.461Z,101488.91
2023-03-20T04:59:49.325Z,101489.78
2023-03-20T05:02:53.146Z,101494.22
2023-03-20T05:05:56.131Z,101495.94
2023-03-20T05:09:00.799Z,101493.28
2023-03-20T05:12:06.541Z,101497.78
2023-03-20T05:15:19.494Z,101501.28
2023-03-20T05:18:40.824Z,101504.00
2023-03-20T05:22:02.710Z,101509.34
2023-03-20T05:25:35.021Z,101504.97
2023-03-20T05:28:48.539Z,101508.47
2023-03-20T05:32:09.127Z,101512.94
2023-03-20T05:35:35.793Z,101512.94
2023-03-20T05:38:48.976Z,101512.94
2023-03-20T05:42:12.102Z,101507.63
2023-03-20T05:45:33.737Z,101506.69
2023-03-20T05:48:48.860Z,101509.34
2023-03-20T05:52:08.486Z,101509.34
2023-03-20T05:55:23.480Z,101506.69
2023-03-20T05:58:58.270Z,101495.09
2023-03-20T06:02:10.492Z,101503.03
2023-03-20T06:05:18.397Z,101503.03
2023-03-20T06:08:26.776Z,101503.03
2023-03-20T06:11:31.694Z,101497.69
2023-03-20T06:14:34.892Z,101501.25
2023-03-20T06:17:42.344Z,101503.84
2023-03-20T06:20:53.009Z,101505.63
2023-03-20T06:23:55.925Z,101509.25
2023-03-20T06:27:00.153Z,101509.25
2023-03-20T06:30:04.014Z,101518.94
2023-03-20T06:33:11.309Z,101532.28
2023-03-20T06:36:30.108Z,101532.28
2023-03-20T06:39:39.338Z,101548.25
2023-03-20T06:42:46.626Z,101551.81
2023-03-20T06:45:51.020Z,101558.94
2023-03-20T06:48:58.828Z,101558.09
2023-03-20T06:52:03.577Z,101567.88
2023-03-20T06:55:08.958Z,101562.53
2023-03-20T06:58:11.847Z,101562.53
2023-03-20T07:01:19.877Z,101559.88
2023-03-20T07:04:22.897Z,101567.00
2023-03-20T07:07:30.949Z,101562.53
2023-03-20T07:10:34.309Z,101562.53
2023-03-20T07:13:38.019Z,101570.53
2023-03-20T07:16:51.590Z,101577.66
2023-03-20T07:19:54.584Z,101569.59
2023-03-20T07:22:58.849Z,101584.66
2023-03-20T07:26:05.436Z,101576.66
2023-03-20T07:29:08.923Z,101580.25
2023-03-20T07:32:12.770Z,101585.56
2023-03-20T07:35:24.352Z,101597.41
2023-03-20T07:38:28.862Z,101592.41
2023-03-20T07:41:42.077Z,101591.84
2023-03-20T07:44:46.527Z,101586.75
2023-03-20T07:47:49.552Z,101599.13
2023-03-20T07:50:52.474Z,101608.75
2023-03-20T07:53:56.734Z,101602.34
2023-03-20T07:56:59.806Z,101609.22
2023-03-20T08:00:04.299Z,101611.78
2023-03-20T08:03:14.643Z,101615.13
2023-03-20T08:06:17.560Z,101618.53
2023-03-20T08:09:21.969Z,101612.13
2023-03-20T08:12:24.800Z,101615.59
2023-03-20T08:15:27.795Z,101614.63
2023-03-20T08:18:30.761Z,101618.09
2023-03-20T08:21:34.546Z,101617.22
2023-03-20T08:24:38.872Z,101626.03
2023-03-20T08:27:41.737Z,101618.84
2023-03-20T08:30:45.366Z,101628.59
2023-03-20T08:33:48.634Z,101616.97
2023-03-20T08:36:52.495Z,101626.75
2023-03-20T08:39:56.934Z,101631.13
2023-03-20T08:43:00.340Z,101624.91
2023-03-20T08:46:03.621Z,101625.78
2023-03-20T08:49:06.632Z,101629.41
2023-03-20T08:52:09.658Z,101617.88
2023-03-20T08:55:16.412Z,101624.97
2023-03-20T08:58:19.991Z,101617.88
2023-03-20T09:01:23.157Z,101609.00
2023-03-20T09:04:26.704Z,101608.06
2023-03-20T09:07:29.696Z,101592.09
2023-03-20T09:10:34.625Z,101583.22
2023-03-20T09:13:37.541Z,101589.41
2023-03-20T09:16:40.587Z,101594.75
2023-03-20T09:19:44.695Z,101597.41
2023-03-20T09:22:47.842Z,101589.34
2023-03-20T09:25:52.159Z,101598.22
2023-03-20T09:28:55.070Z,101594.69
2023-03-20T09:31:58.017Z,101613.34
2023-03-20T09:35:00.970Z,101615.13
2023-03-20T09:38:03.890Z,101609.78
2023-03-20T09:41:13.515Z,101615.13
2023-03-20T09:44:28.251Z,101613.41
2023-03-20T09:47:39.780Z,101624.06
2023-03-20T09:50:50.343Z,101625.88
2023-03-20T09:54:01.235Z,101621.41
2023-03-20T09:57:07.315Z,101624.06
2023-03-20T10:00:16.530Z,101618.75
2023-03-20T10:03:23.753Z,101616.88
2023-03-20T10:06:26.974Z,101623.13
2023-03-20T10:09:31.674Z,101622.22
2023-03-20T10:12:57.420Z,101623.94
2023-03-20T10:16:06.745Z,101623.13
2023-03-20T10:19:23.975Z,101620.47
2023-03-20T10:22:29.910Z,101616.06
2023-03-20T10:25:35.424Z,101617.88
2023-03-20T10:28:47.381Z,101615.19
2023-03-20T10:31:58.493Z,101615.19
2023-03-20T10:35:14.481Z,101611.66
2023-03-20T10:38:34.050Z,101616.06
2023-03-20T10:41:40.807Z,101609.88
2023-03-20T10:44:51.778Z,101592.94
2023-03-20T10:47:56.973Z,101599.13
2023-03-20T10:51:03.228Z,101596.47
2023-03-20T10:54:11.675Z,101593.81
2023-03-20T10:57:19.444Z,101598.22
2023-03-20T11:00:27.044Z,101597.34
2023-03-20T11:03:32.839Z,101602.59
2023-03-20T11:06:43.312Z,101600.88
2023-03-20T11:09:46.494Z,101586.69
2023-03-20T11:12:52.349Z,101596.47
2023-03-20T11:15:57.340Z,101596.47
2023-03-20T11:19:09.245Z,101593.81
2023-03-20T11:22:25.979Z,101592.94
2023-03-20T11:25:35.219Z,101595.56
2023-03-20T11:28:40.710Z,101595.56
2023-03-20T11:31:45.089Z,101593.81
2023-03-20T11:34:48.217Z,101595.56
2023-03-20T11:37:53.085Z,101595.56
2023-03-20T11:40:56.750Z,101586.63
2023-03-20T11:43:59.808Z,101585.78
2023-03-20T11:47:06.980Z,101596.44
2023-03-20T11:50:27.518Z,101583.94
2023-03-20T11:53:33.532Z,101581.28
2023-03-20T11:56:37.521Z,101578.69
2023-03-20T11:59:41.333Z,101580.47
2023-03-20T12:02:46.224Z,101582.22
2023-03-20T12:05:49.188Z,101574.22
2023-03-20T12:08:55.471Z,101572.47
2023-03-20T12:12:02.686Z,101576.03
2023-03-20T12:15:16.503Z,101571.56
2023-03-20T12:18:27.053Z,101581.28
2023-03-20T12:21:34.416Z,101570.63
2023-03-20T12:24:42.534Z,101573.28
2023-03-20T12:27:51.403Z,101570.63
2023-03-20T12:31:05.857Z,101568.91
2023-03-20T12:34:13.815Z,101566.22
2023-03-20T12:37:18.445Z,101570.63
2023-03-20T12:40:32.450Z,101575.09
2023-03-20T12:43:43.830Z,101564.44
2023-03-20T12:46:56.068Z,101566.22
2023-03-20T12:50:14.773Z,101568.03
2023-03-20T12:53:32.614Z,101563.56
2023-03-20T12:56:54.273Z,101562.63
2023-03-20T13:00:17.781Z,101559.03
2023-03-20T13:03:41.133Z,101557.28
2023-03-20T13:06:53.398Z,101543.91
2023-03-20T13:10:08.807Z,101549.28
2023-03-20T13:13:19.788Z,101542.25
2023-03-20T13:16:35.722Z,101543.97
2023-03-20T13:19:44.465Z,101543.97
2023-03-20T13:22:59.424Z,101542.25
2023-03-20T13:26:14.979Z,101542.25
2023-03-20T13:29:25.812Z,101543.13
2023-03-20T13:32:43.979Z,101547.56
2023-03-20T13:35:53.520Z,101537.78
2023-03-20T13:39:04.762Z,101537.88
2023-03-20T13:42:13.874Z,101537.50
2023-03-20T13:45:31.671Z,101539.59
2023-03-20T13:48:37.377Z,101533.47
2023-03-20T13:51:45.839Z,101541.31
2023-03-20T13:55:10.304Z,101535.06
2023-03-20T13:58:29.666Z,101543.88
2023-03-20T14:01:44.213Z,101536.69
2023-03-20T14:04:51.403Z,101538.38
2023-03-20T14:07:57.909Z,101540.97
2023-03-20T14:11:15.500Z,101536.44
2023-03-20T14:14:26.030Z,101536.38
2023-03-20T14:17:31.090Z,101535.41
2023-03-20T14:20:36.313Z,101540.66
2023-03-20T14:23:44.317Z,101531.75
2023-03-20T14:26:51.587Z,101531.63
2023-03-20T14:29:54.521Z,101516.50
2023-03-20T14:33:01.246Z,101523.56
2023-03-20T14:36:20.808Z,101520.91
2023-03-20T14:39:42.309Z,101513.78
2023-03-20T14:42:56.106Z,101511.13
2023-03-20T14:46:04.776Z,101517.28
2023-03-20T14:49:26.187Z,101515.56
2023-03-20T14:52:49.220Z,101519.16
2023-03-20T14:56:02.076Z,101515.56
2023-03-20T14:59:08.031Z,101520.91
2023-03-20T15:02:27.442Z,101520.91
2023-03-20T15:05:33.895Z,101518.25
2023-03-20T15:08:43.290Z,101519.13
2023-03-20T15:11:47.858Z,101508.47
2023-03-20T15:14:57.035Z,101508.38
2023-03-20T15:18:06.214Z,101503.97
2023-03-20T15:21:14.889Z,101490.59
2023-03-20T15:24:23.140Z,101492.38
2023-03-20T15:27:29.762Z,101490.59
2023-03-20T15:30:38.025Z,101491.50
2023-03-20T15:33:43.928Z,101491.50
2023-03-20T15:36:47.081Z,101491.50
2023-03-20T15:39:52.273Z,101493.31
2023-03-20T15:42:57.484Z,101492.38
2023-03-20T15:46:17.449Z,101496.78
2023-03-20T15:49:23.383Z,101497.66
2023-03-20T15:52:31.718Z,101500.25
2023-03-20T15:55:36.646Z,101497.59
2023-03-20T15:58:40.073Z,101491.41
2023-03-20T16:01:45.407Z,101499.41
2023-03-20T16:04:52.138Z,101508.25
2023-03-20T16:07:55.392Z,101501.19
2023-03-20T16:11:01.257Z,101494.13
2023-03-20T16:14:05.508Z,101492.38
2023-03-20T16:17:13.334Z,101494.19
2023-03-20T16:20:17.350Z,101490.59
2023-03-20T16:23:34.417Z,101498.59
2023-03-20T16:26:42.139Z,101499.44
2023-03-20T16:29:45.484Z,101510.09
2023-03-20T16:32:57.315Z,101507.44
2023-03-20T16:36:02.590Z,101510.09
2023-03-20T16:39:09.341Z,101510.97
2023-03-20T16:42:24.357Z,101510.06
2023-03-20T16:45:31.493Z,101511.84
2023-03-20T16:48:37.741Z,101511.84
2023-03-20T16:51:44.064Z,101519.84
2023-03-20T16:54:47.110Z,101518.09
2023-03-20T16:57:53.078Z,101515.44
2023-03-20T17:00:59.715Z,101534.09
2023-03-20T17:04:19.524Z,101528.78
2023-03-20T17:07:25.618Z,101534.09
2023-03-20T17:10:30.111Z,101534.09
2023-03-20T17:13:33.097Z,101535.84
2023-03-20T17:16:36.657Z,101532.25
2023-03-20T17:19:41.055Z,101528.66
2023-03-20T17:22:43.966Z,101534.88
2023-03-20T17:25:49.023Z,101539.31
2023-03-20T17:28:52.496Z,101538.38
2023-03-20T17:31:55.524Z,101540.13
2023-03-20T17:34:59.958Z,101533.91
2023-03-20T17:38:03.063Z,101535.72
2023-03-20T17:41:06.479Z,101533.03
2023-03-20T17:44:10.520Z,101530.34
2023-03-20T17:47:16.889Z,101528.59
2023-03-20T17:50:24.432Z,101521.47
2023-03-20T17:53:29.746Z,101531.19
2023-03-20T17:56:33.118Z,101535.59
2023-03-20T17:59:36.243Z,101528.53
2023-03-20T18:02:39.244Z,101526.72
2023-03-20T18:05:43.845Z,101527.59
2023-03-20T18:08:46.732Z,101529.38
2023-03-20T18:11:49.664Z,101524.91
2023-03-20T18:14:52.758Z,101528.44
2023-03-20T18:17:55.733Z,101532.91
2023-03-20T18:21:00.279Z,101525.78
2023-03-20T18:24:03.581Z,101529.31
2023-03-20T18:27:07.563Z,101529.38
2023-03-20T18:30:16.661Z,101528.47
2023-03-20T18:33:25.198Z,101527.59
2023-03-20T18:36:29.631Z,101531.19
2023-03-20T18:39:32.558Z,101530.28
2023-03-20T18:42:35.606Z,101532.13
2023-03-20T18:45:39.702Z,101538.38
2023-03-20T18:48:42.691Z,101538.38
2023-03-20T18:51:47.420Z,101549.03
2023-03-20T18:54:51.944Z,101548.19
2023-03-20T18:57:55.264Z,101552.66
2023-03-20T19:00:59.682Z,101553.56
2023-03-20T19:04:02.760Z,101550.91
2023-03-20T19:07:07.776Z,101548.25
2023-03-20T19:10:29.536Z,101546.44
2023-03-20T19:13:32.693Z,101545.56
2023-03-20T19:16:38.121Z,101553.56
2023-03-20T19:19:41.263Z,101557.09
2023-03-20T19:22:45.657Z,101553.56
2023-03-20T19:25:50.650Z,101558.00
2023-03-20T19:28:54.679Z,101558.00
2023-03-20T19:31:58.671Z,101560.59
2023-03-20T19:38:26.128Z,101565.03
2023-03-20T19:41:29.827Z,101555.31
2023-03-20T19:44:32.771Z,101556.22
2023-03-20T19:47:35.742Z,101556.22
2023-03-20T19:50:41.532Z,101558.91
2023-03-20T19:53:48.607Z,101558.91
2023-03-20T19:56:51.494Z,101555.41
2023-03-20T19:59:54.362Z,101563.31
2023-03-20T20:02:57.890Z,101564.22
2023-03-20T20:06:02.426Z,101566.00
2023-03-20T20:09:06.996Z,101564.19
2023-03-20T20:12:09.891Z,101558.88
2023-03-20T20:15:14.065Z,101558.00
2023-03-20T20:18:17.833Z,101553.47
2023-03-20T20:22:09.798Z,101558.78
2023-03-20T20:24:45.060Z,101552.59
2023-03-20T20:27:48.240Z,101551.72
2023-03-20T20:30:52.930Z,101553.53
2023-03-20T20:34:38.637Z,101554.38
2023-03-20T20:40:44.061Z,101547.31
2023-03-20T20:44:18.394Z,101552.66
2023-03-20T20:47:10.891Z,101550.06
2023-03-20T20:50:14.822Z,101557.09
2023-03-20T20:53:17.692Z,101550.91
2023-03-20T20:56:22.054Z,101561.56
2023-03-20T20:59:24.928Z,101558.91
2023-03-20T21:02:29.193Z,101551.78
2023-03-20T21:05:32.172Z,101550.91
2023-03-20T21:08:36.584Z,101550.06
2023-03-20T21:11:40.826Z,101558.97
2023-03-20T21:14:44.647Z,101551.03
2023-03-20T21:17:59.998Z,101568.75
2023-03-20T21:21:07.724Z,101561.72
2023-03-20T21:24:30.982Z,101564.38
2023-03-20T21:27:36.767Z,101568.75
2023-03-20T21:30:56.120Z,101569.63
2023-03-20T21:34:06.481Z,101574.91
2023-03-20T21:40:34.081Z,101579.31
2023-03-20T21:43:39.568Z,101564.19
2023-03-20T22:04:37.634Z,101559.84
2023-03-20T22:07:53.761Z,101557.19
2023-03-20T22:35:04.313Z,101551.84
2023-03-20T22:47:42.217Z,101548.38
2023-03-20T22:50:48.451Z,101557.28
2023-03-20T22:53:51.450Z,101556.44
2023-03-20T22:56:54.346Z,101555.56
2023-03-20T22:59:57.169Z,101560.84
2023-03-20T23:03:15.210Z,101548.44
2023-03-20T23:06:23.992Z,101562.63
2023-03-20T23:09:26.945Z,101557.28
2023-03-20T23:12:29.841Z,101566.16
2023-03-20T23:15:32.842Z,101555.56
2023-03-20T23:18:35.912Z,101552.91
2023-03-20T23:21:40.151Z,101555.59
2023-03-20T23:24:43.042Z,101554.75
2023-03-20T23:27:45.989Z,101558.34
2023-03-20T23:30:59.851Z,101556.63
2023-03-20T23:34:11.892Z,101550.41
2023-03-20T23:37:16.442Z,101556.63
2023-03-20T23:40:20.879Z,101552.13
2023-03-20T23:43:24.556Z,101556.63
2023-03-20T23:46:27.493Z,101559.28
2023-03-20T23:49:30.703Z,101551.28
2023-03-20T23:52:43.400Z,101549.53
2023-03-20T23:55:55.140Z,101552.28
2023-03-20T23:59:03.176Z,101549.66
